sensor_id;sensor_type;location;lat;lon;timestamp;pressure;altitude;pressure_sealevel;temperature;humidity
59987;BME280;46181;51.498;5.392;2024-03-02T00:02:35;99707.04;;;14.22;48.5752
59987;BME280;46181;51.498;5.392;2024-03-02T00:07:05;99799.8;;;14.12;49.40625
59987;BME280;46181;51.498;5.392;2024-03-02T00:11:37;99803.94;;;13.66;50.61621
59987;BME280;46181;51.498;5.392;2024-03-02T00:16:06;99798.41;;;13.28;51.83203
59987;BME280;46181;51.498;5.392;2024-03-02T00:20:35;99815.74;;;13;52.81934
59987;BME280;46181;51.498;5.392;2024-03-02T00:25:05;99812.87;;;12.82;53.39746
59987;BME280;46181;51.498;5.392;2024-03-02T00:29:36;99808.79;;;12.68;54.25293
59987;BME280;46181;51.498;5.392;2024-03-02T00:34:14;99818.72;;;12.58;54.68262
59987;BME280;46181;51.498;5.392;2024-03-02T00:38:39;99823.83;;;12.61;54.99316
59987;BME280;46181;51.498;5.392;2024-03-02T00:43:05;99823.75;;;12.58;55.16992
59987;BME280;46181;51.498;5.392;2024-03-02T00:47:35;99827.91;;;12.55;55.60742
59987;BME280;46181;51.498;5.392;2024-03-02T00:52:05;99812.64;;;12.52;55.77344
59987;BME280;46181;51.498;5.392;2024-03-02T00:56:35;99816.09;;;12.51;55.92969
59987;BME280;46181;51.498;5.392;2024-03-02T01:01:05;99821.8;;;12.5;56.16602
59987;BME280;46181;51.498;5.392;2024-03-02T01:05:35;99837.06;;;12.51;56.34863
59987;BME280;46181;51.498;5.392;2024-03-02T01:10:05;99829.05;;;12.5;56.5166
59987;BME280;46181;51.498;5.392;2024-03-02T01:14:35;99829.37;;;12.51;56.62012
59987;BME280;46181;51.498;5.392;2024-03-02T01:19:05;99830.7;;;12.5;56.7207
59987;BME280;46181;51.498;5.392;2024-03-02T01:23:35;99825.87;;;12.49;56.79883
59987;BME280;46181;51.498;5.392;2024-03-02T01:28:05;99831.72;;;12.5;56.89063
59987;BME280;46181;51.498;5.392;2024-03-02T01:32:35;99833.06;;;12.52;57.01758
59987;BME280;46181;51.498;5.392;2024-03-02T01:37:05;99830.37;;;12.53;57.08594
59987;BME280;46181;51.498;5.392;2024-03-02T01:41:35;99847.36;;;12.52;57.04102
59987;BME280;46181;51.498;5.392;2024-03-02T01:46:05;99844.89;;;12.5;57.11621
59987;BME280;46181;51.498;5.392;2024-03-02T01:50:38;99836.87;;;12.45;57.22266
59987;BME280;46181;51.498;5.392;2024-03-02T01:55:05;99851.78;;;12.46;57.3252
59987;BME280;46181;51.498;5.392;2024-03-02T01:59:35;99846.08;;;12.46;57.37207
59987;BME280;46181;51.498;5.392;2024-03-02T02:04:05;99844.33;;;12.45;57.21094
59987;BME280;46181;51.498;5.392;2024-03-02T02:08:35;99835.23;;;12.38;57.22559
59987;BME280;46181;51.498;5.392;2024-03-02T02:13:05;99845.13;;;12.34;57.41309
59987;BME280;46181;51.498;5.392;2024-03-02T02:17:35;99842.4;;;12.34;57.53711
59987;BME280;46181;51.498;5.392;2024-03-02T02:22:05;99841.08;;;12.31;57.52148
59987;BME280;46181;51.498;5.392;2024-03-02T02:26:35;99842.13;;;12.28;57.65332
59987;BME280;46181;51.498;5.392;2024-03-02T02:31:05;99842.37;;;12.28;57.64063
59987;BME280;46181;51.498;5.392;2024-03-02T02:35:35;99832.06;;;12.27;57.74316
59987;BME280;46181;51.498;5.392;2024-03-02T02:40:05;99836.58;;;12.26;57.74121
59987;BME280;46181;51.498;5.392;2024-03-02T02:44:35;99824.84;;;12.26;57.81934
59987;BME280;46181;51.498;5.392;2024-03-02T02:49:05;99838.39;;;12.27;57.86719
59987;BME280;46181;51.498;5.392;2024-03-02T02:53:35;99839.3;;;12.24;57.91895
59987;BME280;46181;51.498;5.392;2024-03-02T02:58:05;99835.17;;;12.2;57.92383
59987;BME280;46181;51.498;5.392;2024-03-02T03:02:36;99837.75;;;12.14;57.97363
59987;BME280;46181;51.498;5.392;2024-03-02T03:07:05;99838.91;;;12.16;57.9873
59987;BME280;46181;51.498;5.392;2024-03-02T03:11:35;99846.23;;;12.15;57.98438
59987;BME280;46181;51.498;5.392;2024-03-02T03:16:05;99845.67;;;12.13;58.00781
59987;BME280;46181;51.498;5.392;2024-03-02T03:20:35;99847.08;;;12.15;57.90527
59987;BME280;46181;51.498;5.392;2024-03-02T03:25:05;99844.27;;;12.12;57.8916
59987;BME280;46181;51.498;5.392;2024-03-02T03:29:35;99840.84;;;12.12;57.82422
59987;BME280;46181;51.498;5.392;2024-03-02T03:34:05;99845.7;;;12.12;57.66504
59987;BME280;46181;51.498;5.392;2024-03-02T03:38:35;99863.23;;;12.11;57.47266
59987;BME280;46181;51.498;5.392;2024-03-02T03:43:05;99856.66;;;12.09;57.3457
59987;BME280;46181;51.498;5.392;2024-03-02T03:47:35;99859.43;;;12.1;57.2666
59987;BME280;46181;51.498;5.392;2024-03-02T03:52:05;99855.38;;;12.07;57.07129
59987;BME280;46181;51.498;5.392;2024-03-02T03:56:35;99864.03;;;12.07;57.16309
59987;BME280;46181;51.498;5.392;2024-03-02T04:01:05;99860.01;;;12.09;56.98438
59987;BME280;46181;51.498;5.392;2024-03-02T04:05:38;99865.05;;;12.13;56.87598
59987;BME280;46181;51.498;5.392;2024-03-02T04:10:05;99871.78;;;12.12;56.80762
59987;BME280;46181;51.498;5.392;2024-03-02T04:14:35;99860.84;;;12.11;56.77246
59987;BME280;46181;51.498;5.392;2024-03-02T04:19:05;99858.9;;;11.96;56.52637
59987;BME280;46181;51.498;5.392;2024-03-02T04:23:35;99862.15;;;11.76;56.69238
59987;BME280;46181;51.498;5.392;2024-03-02T04:28:05;99864.69;;;11.59;56.96484
59987;BME280;46181;51.498;5.392;2024-03-02T04:32:35;99872.41;;;11.6;57.33789
59987;BME280;46181;51.498;5.392;2024-03-02T04:37:05;99873.84;;;11.73;57.35547
59987;BME280;46181;51.498;5.392;2024-03-02T04:41:35;99875.42;;;11.84;57.1875
59987;BME280;46181;51.498;5.392;2024-03-02T04:46:05;99877.86;;;11.91;57.06152
59987;BME280;46181;51.498;5.392;2024-03-02T04:50:35;99877.8;;;11.97;56.97949
59987;BME280;46181;51.498;5.392;2024-03-02T04:55:05;99880.86;;;12.04;56.83105
59987;BME280;46181;51.498;5.392;2024-03-02T04:59:35;99884.69;;;12.05;56.66211
59987;BME280;46181;51.498;5.392;2024-03-02T05:04:05;99890.09;;;12.04;56.57031
59987;BME280;46181;51.498;5.392;2024-03-02T05:08:35;99885.35;;;12.01;56.375
59987;BME280;46181;51.498;5.392;2024-03-02T05:13:05;99889.05;;;11.83;56.50977
59987;BME280;46181;51.498;5.392;2024-03-02T05:17:35;99893.61;;;11.8;56.77734
59987;BME280;46181;51.498;5.392;2024-03-02T05:22:05;99898.47;;;11.81;56.88086
59987;BME280;46181;51.498;5.392;2024-03-02T05:26:35;99904.53;;;11.83;56.83789
59987;BME280;46181;51.498;5.392;2024-03-02T05:31:05;99909.09;;;11.9;56.8457
59987;BME280;46181;51.498;5.392;2024-03-02T05:35:35;99915.17;;;11.93;56.80566
59987;BME280;46181;51.498;5.392;2024-03-02T05:40:05;99917.03;;;12;56.73535
59987;BME280;46181;51.498;5.392;2024-03-02T05:44:35;99922.34;;;12.06;56.69727
59987;BME280;46181;51.498;5.392;2024-03-02T05:49:05;99923.48;;;12.09;56.65723
59987;BME280;46181;51.498;5.392;2024-03-02T05:53:35;99920.05;;;12.1;56.52246
59987;BME280;46181;51.498;5.392;2024-03-02T05:58:05;99917.81;;;11.95;56.32227
59987;BME280;46181;51.498;5.392;2024-03-02T06:07:05;99921.39;;;11.59;56.76172
59987;BME280;46181;51.498;5.392;2024-03-02T06:16:05;99922.34;;;11.63;56.78809
59987;BME280;46181;51.498;5.392;2024-03-02T06:20:40;99938.08;;;11.51;56.85156
59987;BME280;46181;51.498;5.392;2024-03-02T06:25:06;99932.27;;;11.43;56.97559
59987;BME280;46181;51.498;5.392;2024-03-02T06:29:36;99937.66;;;11.36;57.07031
59987;BME280;46181;51.498;5.392;2024-03-02T06:34:05;99934.59;;;11.3;57.18555
59987;BME280;46181;51.498;5.392;2024-03-02T06:38:35;99937.05;;;11.27;57.32813
59987;BME280;46181;51.498;5.392;2024-03-02T06:43:05;99944.38;;;11.28;57.38672
59987;BME280;46181;51.498;5.392;2024-03-02T06:47:36;99945.95;;;11.29;57.43262
59987;BME280;46181;51.498;5.392;2024-03-02T06:52:05;99961.66;;;11.32;57.4707
59987;BME280;46181;51.498;5.392;2024-03-02T06:56:35;99962.49;;;11.37;57.5332
59987;BME280;46181;51.498;5.392;2024-03-02T07:01:05;99965.73;;;11.46;57.46582
59987;BME280;46181;51.498;5.392;2024-03-02T07:05:35;99978.58;;;11.5;57.34766
59987;BME280;46181;51.498;5.392;2024-03-02T07:10:05;99974.33;;;11.52;57.31738
59987;BME280;46181;51.498;5.392;2024-03-02T07:14:35;99971.48;;;11.6;57.29297
59987;BME280;46181;51.498;5.392;2024-03-02T07:19:05;99976.34;;;11.66;57.17578
59987;BME280;46181;51.498;5.392;2024-03-02T07:23:35;99983.58;;;11.72;57.09473
59987;BME280;46181;51.498;5.392;2024-03-02T07:28:05;99987.91;;;11.79;57.03516
59987;BME280;46181;51.498;5.392;2024-03-02T07:32:35;99987.62;;;11.8;56.83301
59987;BME280;46181;51.498;5.392;2024-03-02T07:37:05;99987.83;;;11.81;56.7334
59987;BME280;46181;51.498;5.392;2024-03-02T07:41:35;99989.33;;;11.8;56.70898
59987;BME280;46181;51.498;5.392;2024-03-02T07:46:05;99992.84;;;11.76;56.64746
59987;BME280;46181;51.498;5.392;2024-03-02T07:50:35;99987.31;;;11.7;56.57129
59987;BME280;46181;51.498;5.392;2024-03-02T07:55:05;99994.9;;;11.66;56.60059
59987;BME280;46181;51.498;5.392;2024-03-02T07:59:36;99992.88;;;11.63;56.61914
59987;BME280;46181;51.498;5.392;2024-03-02T08:04:06;99992.38;;;11.67;56.5459
59987;BME280;46181;51.498;5.392;2024-03-02T08:08:35;99997.75;;;11.75;56.55566
59987;BME280;46181;51.498;5.392;2024-03-02T08:13:05;99995.89;;;11.93;56.58984
59987;BME280;46181;51.498;5.392;2024-03-02T08:17:35;99999.14;;;12.17;56.50781
59987;BME280;46181;51.498;5.392;2024-03-02T08:22:05;99997.59;;;12.42;56.10059
59987;BME280;46181;51.498;5.392;2024-03-02T08:26:36;99999.35;;;12.61;55.91016
59987;BME280;46181;51.498;5.392;2024-03-02T08:31:05;99997.06;;;12.85;55.42969
59987;BME280;46181;51.498;5.392;2024-03-02T08:35:35;99998.33;;;13.08;55.04004
59987;BME280;46181;51.498;5.392;2024-03-02T08:40:06;99998.27;;;13.3;54.58008
59987;BME280;46181;51.498;5.392;2024-03-02T08:44:35;100004.3;;;13.43;53.94922
59987;BME280;46181;51.498;5.392;2024-03-02T08:49:05;100010.1;;;13.55;53.80566
59987;BME280;46181;51.498;5.392;2024-03-02T08:53:35;100003.4;;;13.67;53.32129
59987;BME280;46181;51.498;5.392;2024-03-02T08:58:05;100013.3;;;13.79;53.08496
59987;BME280;46181;51.498;5.392;2024-03-02T09:02:35;100002.6;;;13.89;52.59668
59987;BME280;46181;51.498;5.392;2024-03-02T09:07:05;100000.6;;;13.96;52.43652
59987;BME280;46181;51.498;5.392;2024-03-02T09:11:35;100001.6;;;14.02;52.03223
59987;BME280;46181;51.498;5.392;2024-03-02T09:16:05;100005.1;;;14.12;51.7041
59987;BME280;46181;51.498;5.392;2024-03-02T09:20:35;99998.41;;;14.17;51.03809
59987;BME280;46181;51.498;5.392;2024-03-02T09:25:05;100009.1;;;14.27;50.8457
59987;BME280;46181;51.498;5.392;2024-03-02T09:29:35;100009.8;;;14.38;50.34668
59987;BME280;46181;51.498;5.392;2024-03-02T09:34:05;100012.8;;;14.43;49.87305
59987;BME280;46181;51.498;5.392;2024-03-02T09:38:35;100012.6;;;14.53;49.4873
59987;BME280;46181;51.498;5.392;2024-03-02T09:43:05;100003.8;;;14.72;49.62109
59987;BME280;46181;51.498;5.392;2024-03-02T09:47:35;100000.6;;;14.82;49.0625
59987;BME280;46181;51.498;5.392;2024-03-02T09:52:05;100003.3;;;14.93;48.45996
59987;BME280;46181;51.498;5.392;2024-03-02T09:56:35;100002.8;;;14.97;48.41797
59987;BME280;46181;51.498;5.392;2024-03-02T10:01:05;99995.45;;;15.13;48.03711
59987;BME280;46181;51.498;5.392;2024-03-02T10:05:38;99994.64;;;15.17;47.34473
59987;BME280;46181;51.498;5.392;2024-03-02T10:10:15;99988.57;;;15.22;47.04199
59987;BME280;46181;51.498;5.392;2024-03-02T10:14:35;99978.99;;;15.28;46.62695
59987;BME280;46181;51.498;5.392;2024-03-02T10:23:35;99983.41;;;15.4;45.61133
59987;BME280;46181;51.498;5.392;2024-03-02T10:28:06;99970.38;;;15.51;45.57617
59987;BME280;46181;51.498;5.392;2024-03-02T10:32:36;99972.16;;;15.63;45.32617
59987;BME280;46181;51.498;5.392;2024-03-02T10:37:05;99976.54;;;15.71;45.00293
59987;BME280;46181;51.498;5.392;2024-03-02T10:41:36;99974.79;;;15.8;44.35938
59987;BME280;46181;51.498;5.392;2024-03-02T10:46:06;99964.78;;;15.84;44.18164
59987;BME280;46181;51.498;5.392;2024-03-02T10:50:35;99966.64;;;15.89;43.27051
59987;BME280;46181;51.498;5.392;2024-03-02T10:55:06;99956.63;;;15.93;42.72559
59987;BME280;46181;51.498;5.392;2024-03-02T10:59:37;99959.55;;;16.02;42.80273
59987;BME280;46181;51.498;5.392;2024-03-02T11:04:07;99957.76;;;16.19;42.94434
59987;BME280;46181;51.498;5.392;2024-03-02T11:08:37;99947.92;;;16.29;42.80566
59987;BME280;46181;51.498;5.392;2024-03-02T11:13:11;99952.27;;;16.31;42.42969
59987;BME280;46181;51.498;5.392;2024-03-02T11:17:35;99945.36;;;16.41;42.37012
59987;BME280;46181;51.498;5.392;2024-03-02T11:22:06;99945.95;;;16.47;42.69629
59987;BME280;46181;51.498;5.392;2024-03-02T11:26:35;99940.7;;;16.56;42.12012
59987;BME280;46181;51.498;5.392;2024-03-02T11:31:05;99948.13;;;16.53;41.91211
59987;BME280;46181;51.498;5.392;2024-03-02T11:35:37;99943.96;;;16.5;42.08105
59987;BME280;46181;51.498;5.392;2024-03-02T11:40:06;99942.89;;;16.6;41.9873
59987;BME280;46181;51.498;5.392;2024-03-02T11:44:36;99946.69;;;16.71;41.73438
59987;BME280;46181;51.498;5.392;2024-03-02T11:49:05;99946.88;;;16.76;41.63574
59987;BME280;46181;51.498;5.392;2024-03-02T11:53:35;99936.96;;;16.78;41.25879
59987;BME280;46181;51.498;5.392;2024-03-02T11:58:06;99926.21;;;16.76;41.38281
59987;BME280;46181;51.498;5.392;2024-03-02T12:02:35;99923.97;;;16.78;41.22461
59987;BME280;46181;51.498;5.392;2024-03-02T12:07:09;99912.8;;;16.85;41.26563
59987;BME280;46181;51.498;5.392;2024-03-02T12:11:35;99907.83;;;17;40.96875
59987;BME280;46181;51.498;5.392;2024-03-02T12:16:06;99896.96;;;17.15;41.05273
59987;BME280;46181;51.498;5.392;2024-03-02T12:20:36;99881.19;;;17.29;40.73242
59987;BME280;46181;51.498;5.392;2024-03-02T12:25:05;99862.17;;;17.41;40.59375
59987;BME280;46181;51.498;5.392;2024-03-02T12:29:35;99858.16;;;17.54;40.30566
59987;BME280;46181;51.498;5.392;2024-03-02T12:34:06;99858.16;;;17.64;39.95898
59987;BME280;46181;51.498;5.392;2024-03-02T12:38:35;99854.34;;;17.78;40.14453
59987;BME280;46181;51.498;5.392;2024-03-02T12:43:05;99864.47;;;17.88;39.99316
59987;BME280;46181;51.498;5.392;2024-03-02T12:47:35;99853.27;;;17.8;39.6748
59987;BME280;46181;51.498;5.392;2024-03-02T12:52:05;99838.6;;;17.8;40.01953
59987;BME280;46181;51.498;5.392;2024-03-02T12:56:35;99837.41;;;17.85;39.83887
59987;BME280;46181;51.498;5.392;2024-03-02T13:01:18;99838.52;;;17.81;39.74414
59987;BME280;46181;51.498;5.392;2024-03-02T13:05:38;99828.86;;;17.92;39.32813
59987;BME280;46181;51.498;5.392;2024-03-02T13:10:05;99820.69;;;17.97;39.20703
59987;BME280;46181;51.498;5.392;2024-03-02T13:14:36;99820.42;;;18.1;39.30859
59987;BME280;46181;51.498;5.392;2024-03-02T13:19:05;99819.8;;;18.21;39.37695
59987;BME280;46181;51.498;5.392;2024-03-02T13:23:36;99814.89;;;18.26;39.25391
59987;BME280;46181;51.498;5.392;2024-03-02T13:28:05;99808.1;;;18.27;39.07129
59987;BME280;46181;51.498;5.392;2024-03-02T13:32:35;99789.7;;;18.26;38.63184
59987;BME280;46181;51.498;5.392;2024-03-02T13:37:05;99791.41;;;18.35;38.34082
59987;BME280;46181;51.498;5.392;2024-03-02T13:41:35;99785.94;;;18.43;38.2207
59987;BME280;46181;51.498;5.392;2024-03-02T13:46:05;99785.5;;;18.42;37.9668
59987;BME280;46181;51.498;5.392;2024-03-02T13:50:35;99782.99;;;18.38;37.88281
59987;BME280;46181;51.498;5.392;2024-03-02T13:55:06;99781.13;;;18.3;37.95605
59987;BME280;46181;51.498;5.392;2024-03-02T13:59:35;99781.35;;;18.24;38.14648
59987;BME280;46181;51.498;5.392;2024-03-02T14:04:05;99777.63;;;18.19;38.2002
59987;BME280;46181;51.498;5.392;2024-03-02T14:08:35;99765.42;;;18.13;38.15918
59987;BME280;46181;51.498;5.392;2024-03-02T14:13:05;99765.09;;;18;38.35645
59987;BME280;46181;51.498;5.392;2024-03-02T14:17:35;99760.35;;;18;38.49512
59987;BME280;46181;51.498;5.392;2024-03-02T14:22:05;99763.2;;;18.18;38.47656
59987;BME280;46181;51.498;5.392;2024-03-02T14:26:35;99759.34;;;18.46;38.0166
59987;BME280;46181;51.498;5.392;2024-03-02T14:31:05;99756.8;;;18.59;37.60059
59987;BME280;46181;51.498;5.392;2024-03-02T14:35:35;99749.88;;;18.54;37.61914
59987;BME280;46181;51.498;5.392;2024-03-02T14:40:08;99754.09;;;18.57;37.70215
59987;BME280;46181;51.498;5.392;2024-03-02T14:44:35;99747.29;;;18.49;37.4541
59987;BME280;46181;51.498;5.392;2024-03-02T14:49:05;99750.49;;;18.35;37.97266
59987;BME280;46181;51.498;5.392;2024-03-02T14:53:35;99743.47;;;18.28;38.12695
59987;BME280;46181;51.498;5.392;2024-03-02T14:58:05;99745.16;;;18.26;38.26367
59987;BME280;46181;51.498;5.392;2024-03-02T15:02:35;99744.69;;;18.29;38.38184
59987;BME280;46181;51.498;5.392;2024-03-02T15:07:05;99757.2;;;18.33;37.95801
59987;BME280;46181;51.498;5.392;2024-03-02T15:11:35;99736.81;;;18.42;38.13965
59987;BME280;46181;51.498;5.392;2024-03-02T15:16:05;99740.65;;;18.54;38.05762
59987;BME280;46181;51.498;5.392;2024-03-02T15:20:35;99738.82;;;18.58;38.03809
59987;BME280;46181;51.498;5.392;2024-03-02T15:25:06;99739.61;;;18.64;37.86914
59987;BME280;46181;51.498;5.392;2024-03-02T15:29:35;99732.64;;;18.61;38.02832
59987;BME280;46181;51.498;5.392;2024-03-02T15:34:05;99733.08;;;18.66;38.125
59987;BME280;46181;51.498;5.392;2024-03-02T15:38:35;99731.83;;;18.72;38.11816
59987;BME280;46181;51.498;5.392;2024-03-02T15:43:05;99726.03;;;18.52;38.18262
59987;BME280;46181;51.498;5.392;2024-03-02T15:47:35;99716.26;;;18.26;38.21777
59987;BME280;46181;51.498;5.392;2024-03-02T15:52:05;99715.66;;;18.08;38.88184
59987;BME280;46181;51.498;5.392;2024-03-02T15:56:35;99722.61;;;18.01;39.38379
59987;BME280;46181;51.498;5.392;2024-03-02T16:01:06;99722.69;;;18.11;39.35645
59987;BME280;46181;51.498;5.392;2024-03-02T16:05:35;99713.98;;;18.16;38.96973
59987;BME280;46181;51.498;5.392;2024-03-02T16:10:06;99718.72;;;18.29;39.20117
59987;BME280;46181;51.498;5.392;2024-03-02T16:14:35;99713.23;;;18.42;38.80762
59987;BME280;46181;51.498;5.392;2024-03-02T16:19:05;99708.58;;;18.42;38.61133
59987;BME280;46181;51.498;5.392;2024-03-02T16:23:35;99711.58;;;18.36;38.54883
59987;BME280;46181;51.498;5.392;2024-03-02T16:28:05;99714.16;;;18.31;38.72949
59987;BME280;46181;51.498;5.392;2024-03-02T16:32:35;99712.13;;;18.27;39.04883
59987;BME280;46181;51.498;5.392;2024-03-02T16:37:05;99703.73;;;18.17;39.25879
59987;BME280;46181;51.498;5.392;2024-03-02T16:41:35;99698.69;;;18.1;39.65527
59987;BME280;46181;51.498;5.392;2024-03-02T16:46:05;99697.53;;;18.03;39.72949
59987;BME280;46181;51.498;5.392;2024-03-02T16:50:35;99700.3;;;17.99;40.11816
59987;BME280;46181;51.498;5.392;2024-03-02T16:55:05;99706.05;;;17.93;40.13477
59987;BME280;46181;51.498;5.392;2024-03-02T16:59:35;99710.92;;;17.87;40.35938
59987;BME280;46181;51.498;5.392;2024-03-02T17:04:05;99716.91;;;17.83;40.29883
59987;BME280;46181;51.498;5.392;2024-03-02T17:08:35;99715.23;;;17.77;40.43066
59987;BME280;46181;51.498;5.392;2024-03-02T17:13:05;99721.03;;;17.75;40.84375
59987;BME280;46181;51.498;5.392;2024-03-02T17:17:35;99722.99;;;17.73;40.96777
59987;BME280;46181;51.498;5.392;2024-03-02T17:22:05;99724.73;;;17.71;40.94336
59987;BME280;46181;51.498;5.392;2024-03-02T17:26:35;99732.6;;;17.69;40.87207
59987;BME280;46181;51.498;5.392;2024-03-02T17:31:05;99742.84;;;17.67;41.19238
59987;BME280;46181;51.498;5.392;2024-03-02T17:35:35;99740.06;;;17.66;41.2373
59987;BME280;46181;51.498;5.392;2024-03-02T17:40:06;99741.61;;;17.63;41.56836
59987;BME280;46181;51.498;5.392;2024-03-02T17:44:35;99742.57;;;17.63;41.64844
59987;BME280;46181;51.498;5.392;2024-03-02T17:49:05;99748.59;;;17.62;41.85449
59987;BME280;46181;51.498;5.392;2024-03-02T17:53:35;99748.17;;;17.58;41.89648
59987;BME280;46181;51.498;5.392;2024-03-02T17:58:05;99756.97;;;17.55;42.20313
59987;BME280;46181;51.498;5.392;2024-03-02T18:02:35;99753.69;;;17.51;42.55664
59987;BME280;46181;51.498;5.392;2024-03-02T18:07:05;99759.58;;;17.47;42.875
59987;BME280;46181;51.498;5.392;2024-03-02T18:11:35;99756.95;;;17.42;43.20215
59987;BME280;46181;51.498;5.392;2024-03-02T18:16:06;99755.09;;;17.36;43.4834
59987;BME280;46181;51.498;5.392;2024-03-02T18:20:35;99758.63;;;17.33;43.72168
59987;BME280;46181;51.498;5.392;2024-03-02T18:25:06;99756.16;;;17.3;43.86816
59987;BME280;46181;51.498;5.392;2024-03-02T18:29:35;99748.14;;;17.29;43.94727
59987;BME280;46181;51.498;5.392;2024-03-02T18:34:06;99744.26;;;17.26;44.14063
59987;BME280;46181;51.498;5.392;2024-03-02T18:38:35;99747.73;;;17.2;44.22559
59987;BME280;46181;51.498;5.392;2024-03-02T18:43:05;99749.31;;;17.06;44.33789
59987;BME280;46181;51.498;5.392;2024-03-02T18:47:35;99736.06;;;16.91;44.72461
59987;BME280;46181;51.498;5.392;2024-03-02T18:52:06;99736.19;;;16.79;44.94141
59987;BME280;46181;51.498;5.392;2024-03-02T18:56:35;99735.92;;;16.69;45.12695
59987;BME280;46181;51.498;5.392;2024-03-02T19:01:06;99729.45;;;16.62;45.24414
59987;BME280;46181;51.498;5.392;2024-03-02T19:05:35;99730.19;;;16.53;45.3623
59987;BME280;46181;51.498;5.392;2024-03-02T19:10:06;99728.95;;;16.49;45.55078
59987;BME280;46181;51.498;5.392;2024-03-02T19:14:35;99723.02;;;16.49;45.71289
59987;BME280;46181;51.498;5.392;2024-03-02T19:19:05;99720.73;;;16.58;45.74512
59987;BME280;46181;51.498;5.392;2024-03-02T19:23:35;99723.87;;;16.69;45.71094
59987;BME280;46181;51.498;5.392;2024-03-02T19:28:05;99721.14;;;16.72;45.61035
59987;BME280;46181;51.498;5.392;2024-03-02T19:32:35;99718.92;;;16.68;45.58301
59987;BME280;46181;51.498;5.392;2024-03-02T19:37:05;99715.39;;;16.58;45.58398
59987;BME280;46181;51.498;5.392;2024-03-02T19:41:35;99708.14;;;16.5;45.85059
59987;BME280;46181;51.498;5.392;2024-03-02T19:46:05;99716.13;;;16.46;45.83496
59987;BME280;46181;51.498;5.392;2024-03-02T19:50:35;99712;;;16.42;45.81934
59987;BME280;46181;51.498;5.392;2024-03-02T19:55:06;99714.98;;;16.4;46.00098
59987;BME280;46181;51.498;5.392;2024-03-02T19:59:35;99712.23;;;16.38;45.96387
59987;BME280;46181;51.498;5.392;2024-03-02T20:04:05;99707.94;;;16.34;46.0293
59987;BME280;46181;51.498;5.392;2024-03-02T20:08:35;99705.31;;;16.33;46.22266
59987;BME280;46181;51.498;5.392;2024-03-02T20:13:06;99712.5;;;16.28;46.23926
59987;BME280;46181;51.498;5.392;2024-03-02T20:17:35;99718.73;;;16.23;46.45117
59987;BME280;46181;51.498;5.392;2024-03-02T20:22:10;99716.31;;;16.13;46.46484
59987;BME280;46181;51.498;5.392;2024-03-02T20:26:36;99726.79;;;16.06;46.57129
59987;BME280;46181;51.498;5.392;2024-03-02T20:31:06;99722.66;;;16;46.61035
59987;BME280;46181;51.498;5.392;2024-03-02T20:35:35;99721.25;;;15.92;46.89941
59987;BME280;46181;51.498;5.392;2024-03-02T20:40:06;99727.86;;;15.85;47.00684
59987;BME280;46181;51.498;5.392;2024-03-02T20:44:35;99730.63;;;15.8;47.13867
59987;BME280;46181;51.498;5.392;2024-03-02T20:49:05;99728.01;;;15.78;47.23926
59987;BME280;46181;51.498;5.392;2024-03-02T20:53:36;99722.38;;;15.74;47.37109
59987;BME280;46181;51.498;5.392;2024-03-02T20:58:06;99727.36;;;15.71;47.44824
59987;BME280;46181;51.498;5.392;2024-03-02T21:02:35;99729.97;;;15.65;47.5918
59987;BME280;46181;51.498;5.392;2024-03-02T21:07:09;99728.92;;;15.6;47.63086
59987;BME280;46181;51.498;5.392;2024-03-02T21:11:35;99733.05;;;15.6;47.67676
59987;BME280;46181;51.498;5.392;2024-03-02T21:16:06;99738.11;;;15.59;47.76855
59987;BME280;46181;51.498;5.392;2024-03-02T21:20:35;99737.19;;;15.55;47.79785
59987;BME280;46181;51.498;5.392;2024-03-02T21:25:06;99737.51;;;15.54;47.97852
59987;BME280;46181;51.498;5.392;2024-03-02T21:29:35;99747.66;;;15.57;48.00586
59987;BME280;46181;51.498;5.392;2024-03-02T21:34:05;99731.62;;;15.55;47.93457
59987;BME280;46181;51.498;5.392;2024-03-02T21:38:35;99741.8;;;15.54;48.05859
59987;BME280;46181;51.498;5.392;2024-03-02T21:43:06;99749.95;;;15.51;48.19238
59987;BME280;46181;51.498;5.392;2024-03-02T21:47:36;99746.61;;;15.48;48.20117
59987;BME280;46181;51.498;5.392;2024-03-02T21:52:06;99744.83;;;15.43;48.27441
59987;BME280;46181;51.498;5.392;2024-03-02T21:56:35;99741.25;;;15.41;48.34082
59987;BME280;46181;51.498;5.392;2024-03-02T22:01:06;99733.11;;;15.36;48.49512
59987;BME280;46181;51.498;5.392;2024-03-02T22:05:36;99730.92;;;15.34;48.6084
59987;BME280;46181;51.498;5.392;2024-03-02T22:10:07;99730.34;;;15.41;48.66113
59987;BME280;46181;51.498;5.392;2024-03-02T22:14:36;99725.19;;;15.45;48.5625
59987;BME280;46181;51.498;5.392;2024-03-02T22:19:05;99720.88;;;15.5;48.68262
59987;BME280;46181;51.498;5.392;2024-03-02T22:23:36;99712.76;;;15.57;48.48535
59987;BME280;46181;51.498;5.392;2024-03-02T22:28:06;99713.59;;;15.67;48.34668
59987;BME280;46181;51.498;5.392;2024-03-02T22:32:36;99713.34;;;15.79;48.16602
59987;BME280;46181;51.498;5.392;2024-03-02T22:37:06;99715.89;;;15.84;48.06934
59987;BME280;46181;51.498;5.392;2024-03-02T22:41:35;99724.39;;;15.87;48.0957
59987;BME280;46181;51.498;5.392;2024-03-02T22:46:06;99721.73;;;15.94;48.03418
59987;BME280;46181;51.498;5.392;2024-03-02T22:50:36;99723.18;;;16;47.90234
59987;BME280;46181;51.498;5.392;2024-03-02T22:55:06;99717.21;;;16.04;47.85059
59987;BME280;46181;51.498;5.392;2024-03-02T22:59:36;99711.5;;;16.07;47.75
59987;BME280;46181;51.498;5.392;2024-03-02T23:04:06;99706.69;;;16.09;47.58203
59987;BME280;46181;51.498;5.392;2024-03-02T23:08:36;99714.52;;;16.13;47.43848
59987;BME280;46181;51.498;5.392;2024-03-02T23:13:06;99706.55;;;16.18;47.28125